sensor_id;sensor_type;location;lat;lon;timestamp;P1;durP1;ratioP1;P2;durP2;ratioP2
39344;SDS011;25061;51.954;6.996;2023-09-19T04:31:08;15.90;;;2.70;;
39344;SDS011;25061;51.954;6.996;2023-09-19T04:33:33;13.40;;;2.65;;
39344;SDS011;25061;51.954;6.996;2023-09-19T04:36:00;14.98;;;2.60;;
39344;SDS011;25061;51.954;6.996;2023-09-19T04:38:25;17.05;;;2.20;;
39344;SDS011;25061;51.954;6.996;2023-09-19T04:40:56;14.73;;;2.50;;
39344;SDS011;25061;51.954;6.996;2023-09-19T04:43:23;15.90;;;2.92;;
39344;SDS011;25061;51.954;6.996;2023-09-19T04:45:49;15.40;;;2.50;;
39344;SDS011;25061;51.954;6.996;2023-09-19T04:48:16;13.52;;;2.80;;
39344;SDS011;25061;51.954;6.996;2023-09-19T04:50:41;17.60;;;3.42;;
39344;SDS011;25061;51.954;6.996;2023-09-19T04:53:08;10.43;;;2.67;;
39344;SDS011;25061;51.954;6.996;2023-09-19T04:55:33;17.30;;;3.15;;
39344;SDS011;25061;51.954;6.996;2023-09-19T04:57:59;15.07;;;2.63;;
39344;SDS011;25061;51.954;6.996;2023-09-19T05:00:24;13.20;;;2.70;;
39344;SDS011;25061;51.954;6.996;2023-09-19T05:02:54;12.30;;;2.75;;
39344;SDS011;25061;51.954;6.996;2023-09-19T05:05:21;15.25;;;2.70;;
39344;SDS011;25061;51.954;6.996;2023-09-19T05:07:51;15.23;;;2.10;;
39344;SDS011;25061;51.954;6.996;2023-09-19T05:10:20;13.05;;;2.10;;
39344;SDS011;25061;51.954;6.996;2023-09-19T05:12:46;15.30;;;2.65;;
39344;SDS011;25061;51.954;6.996;2023-09-19T05:15:13;15.75;;;3.28;;
39344;SDS011;25061;51.954;6.996;2023-09-19T05:17:47;15.95;;;2.60;;
39344;SDS011;25061;51.954;6.996;2023-09-19T05:20:14;13.82;;;2.55;;
39344;SDS011;25061;51.954;6.996;2023-09-19T05:22:43;11.73;;;2.25;;
39344;SDS011;25061;51.954;6.996;2023-09-19T05:25:11;13.90;;;2.58;;
39344;SDS011;25061;51.954;6.996;2023-09-19T05:27:41;13.00;;;2.40;;
39344;SDS011;25061;51.954;6.996;2023-09-19T05:30:07;15.55;;;2.47;;
39344;SDS011;25061;51.954;6.996;2023-09-19T05:32:33;13.07;;;2.83;;
39344;SDS011;25061;51.954;6.996;2023-09-19T05:34:59;12.27;;;2.45;;
39344;SDS011;25061;51.954;6.996;2023-09-19T05:37:25;10.98;;;2.10;;
39344;SDS011;25061;51.954;6.996;2023-09-19T05:39:51;13.75;;;2.10;;
39344;SDS011;25061;51.954;6.996;2023-09-19T05:42:18;14.82;;;2.55;;
39344;SDS011;25061;51.954;6.996;2023-09-19T05:44:44;14.23;;;2.30;;
39344;SDS011;25061;51.954;6.996;2023-09-19T05:47:09;16.75;;;2.63;;
39344;SDS011;25061;51.954;6.996;2023-09-19T05:49:40;12.10;;;2.05;;
39344;SDS011;25061;51.954;6.996;2023-09-19T05:52:06;14.65;;;2.42;;
39344;SDS011;25061;51.954;6.996;2023-09-19T05:54:32;16.88;;;3.28;;
39344;SDS011;25061;51.954;6.996;2023-09-19T05:57:00;12.77;;;2.47;;
39344;SDS011;25061;51.954;6.996;2023-09-19T05:59:26;11.77;;;2.50;;
39344;SDS011;25061;51.954;6.996;2023-09-19T06:01:52;12.48;;;2.30;;
39344;SDS011;25061;51.954;6.996;2023-09-19T06:04:18;16.10;;;3.75;;
39344;SDS011;25061;51.954;6.996;2023-09-19T06:06:46;12.40;;;2.30;;
39344;SDS011;25061;51.954;6.996;2023-09-19T06:09:13;12.95;;;2.05;;
39344;SDS011;25061;51.954;6.996;2023-09-19T06:11:42;17.42;;;2.63;;
39344;SDS011;25061;51.954;6.996;2023-09-19T06:14:08;11.23;;;2.50;;
39344;SDS011;25061;51.954;6.996;2023-09-19T06:16:35;12.95;;;2.83;;
39344;SDS011;25061;51.954;6.996;2023-09-19T06:19:04;16.42;;;2.60;;
39344;SDS011;25061;51.954;6.996;2023-09-19T06:21:33;13.60;;;2.80;;
39344;SDS011;25061;51.954;6.996;2023-09-19T06:23:59;13.57;;;2.70;;
39344;SDS011;25061;51.954;6.996;2023-09-19T06:26:26;13.93;;;2.65;;
39344;SDS011;25061;51.954;6.996;2023-09-19T06:28:52;13.50;;;2.30;;
39344;SDS011;25061;51.954;6.996;2023-09-19T06:31:17;15.10;;;2.92;;
39344;SDS011;25061;51.954;6.996;2023-09-19T06:33:47;12.95;;;2.85;;
39344;SDS011;25061;51.954;6.996;2023-09-19T06:36:13;11.80;;;2.95;;
39344;SDS011;25061;51.954;6.996;2023-09-19T06:38:40;13.45;;;2.47;;
39344;SDS011;25061;51.954;6.996;2023-09-19T06:41:06;12.07;;;2.22;;
39344;SDS011;25061;51.954;6.996;2023-09-19T06:43:33;14.02;;;3.08;;
39344;SDS011;25061;51.954;6.996;2023-09-19T06:46:02;16.58;;;2.83;;
39344;SDS011;25061;51.954;6.996;2023-09-19T06:48:29;15.00;;;2.47;;
39344;SDS011;25061;51.954;6.996;2023-09-19T06:50:57;13.05;;;2.47;;
39344;SDS011;25061;51.954;6.996;2023-09-19T06:53:23;11.63;;;2.28;;
39344;SDS011;25061;51.954;6.996;2023-09-19T06:55:50;10.45;;;2.20;;
39344;SDS011;25061;51.954;6.996;2023-09-19T06:58:16;12.48;;;2.40;;
39344;SDS011;25061;51.954;6.996;2023-09-19T07:00:42;16.05;;;2.47;;
39344;SDS011;25061;51.954;6.996;2023-09-19T07:03:07;16.00;;;3.03;;
39344;SDS011;25061;51.954;6.996;2023-09-19T07:05:36;11.38;;;2.55;;
39344;SDS011;25061;51.954;6.996;2023-09-19T07:08:04;15.80;;;2.60;;
39344;SDS011;25061;51.954;6.996;2023-09-19T07:10:31;13.65;;;2.45;;
39344;SDS011;25061;51.954;6.996;2023-09-19T07:13:02;23.88;;;3.97;;
39344;SDS011;25061;51.954;6.996;2023-09-19T07:15:29;13.20;;;2.70;;
39344;SDS011;25061;51.954;6.996;2023-09-19T07:17:58;15.27;;;2.88;;
39344;SDS011;25061;51.954;6.996;2023-09-19T07:20:25;9.48;;;2.05;;
39344;SDS011;25061;51.954;6.996;2023-09-19T07:22:56;19.92;;;2.83;;
39344;SDS011;25061;51.954;6.996;2023-09-19T07:25:24;13.07;;;2.90;;
39344;SDS011;25061;51.954;6.996;2023-09-19T07:27:51;14.43;;;2.50;;
39344;SDS011;25061;51.954;6.996;2023-09-19T07:30:17;11.20;;;2.67;;
39344;SDS011;25061;51.954;6.996;2023-09-19T07:32:43;11.38;;;2.25;;
39344;SDS011;25061;51.954;6.996;2023-09-19T07:35:10;15.88;;;2.40;;
39344;SDS011;25061;51.954;6.996;2023-09-19T07:37:37;15.35;;;3.10;;
39344;SDS011;25061;51.954;6.996;2023-09-19T07:40:03;16.13;;;2.53;;
39344;SDS011;25061;51.954;6.996;2023-09-19T07:42:32;16.05;;;2.83;;
39344;SDS011;25061;51.954;6.996;2023-09-19T07:45:00;16.30;;;2.55;;
39344;SDS011;25061;51.954;6.996;2023-09-19T07:47:26;14.25;;;2.50;;
39344;SDS011;25061;51.954;6.996;2023-09-19T07:49:52;14.57;;;2.80;;
39344;SDS011;25061;51.954;6.996;2023-09-19T07:52:19;12.82;;;2.83;;
39344;SDS011;25061;51.954;6.996;2023-09-19T07:54:46;15.20;;;3.30;;
39344;SDS011;25061;51.954;6.996;2023-09-19T07:57:12;14.70;;;2.47;;
39344;SDS011;25061;51.954;6.996;2023-09-19T07:59:40;14.80;;;2.83;;
39344;SDS011;25061;51.954;6.996;2023-09-19T08:02:07;17.40;;;3.22;;
39344;SDS011;25061;51.954;6.996;2023-09-19T08:04:40;15.57;;;3.50;;
39344;SDS011;25061;51.954;6.996;2023-09-19T08:07:14;13.60;;;2.80;;
39344;SDS011;25061;51.954;6.996;2023-09-19T08:09:41;15.52;;;3.45;;
39344;SDS011;25061;51.954;6.996;2023-09-19T08:12:11;11.07;;;2.75;;
39344;SDS011;25061;51.954;6.996;2023-09-19T08:14:37;13.38;;;3.28;;
39344;SDS011;25061;51.954;6.996;2023-09-19T08:17:03;13.98;;;3.25;;
39344;SDS011;25061;51.954;6.996;2023-09-19T08:19:33;13.82;;;3.65;;
39344;SDS011;25061;51.954;6.996;2023-09-19T08:21:59;12.98;;;2.72;;
39344;SDS011;25061;51.954;6.996;2023-09-19T08:24:25;14.70;;;2.58;;
39344;SDS011;25061;51.954;6.996;2023-09-19T08:26:58;13.73;;;2.80;;
39344;SDS011;25061;51.954;6.996;2023-09-19T08:29:24;15.95;;;2.50;;
39344;SDS011;25061;51.954;6.996;2023-09-19T08:32:03;15.43;;;3.13;;
39344;SDS011;25061;51.954;6.996;2023-09-19T08:34:33;17.73;;;3.33;;
39344;SDS011;25061;51.954;6.996;2023-09-19T08:37:03;15.43;;;3.10;;
39344;SDS011;25061;51.954;6.996;2023-09-19T08:39:29;14.32;;;3.13;;
39344;SDS011;25061;51.954;6.996;2023-09-19T08:41:59;13.82;;;3.00;;
39344;SDS011;25061;51.954;6.996;2023-09-19T08:44:26;13.48;;;2.67;;
39344;SDS011;25061;51.954;6.996;2023-09-19T08:46:58;15.38;;;3.50;;
39344;SDS011;25061;51.954;6.996;2023-09-19T08:49:59;14.35;;;3.00;;
39344;SDS011;25061;51.954;6.996;2023-09-19T08:52:32;18.55;;;3.05;;
39344;SDS011;25061;51.954;6.996;2023-09-19T08:55:06;15.27;;;2.83;;
39344;SDS011;25061;51.954;6.996;2023-09-19T08:57:36;15.52;;;2.75;;
39344;SDS011;25061;51.954;6.996;2023-09-19T09:00:09;16.40;;;2.88;;
39344;SDS011;25061;51.954;6.996;2023-09-19T09:02:39;14.13;;;2.83;;
39344;SDS011;25061;51.954;6.996;2023-09-19T09:05:14;17.92;;;2.90;;
39344;SDS011;25061;51.954;6.996;2023-09-19T09:07:41;12.60;;;2.90;;
39344;SDS011;25061;51.954;6.996;2023-09-19T09:10:08;16.83;;;3.13;;
39344;SDS011;25061;51.954;6.996;2023-09-19T09:12:35;16.60;;;2.78;;
39344;SDS011;25061;51.954;6.996;2023-09-19T09:15:06;15.00;;;3.40;;
39344;SDS011;25061;51.954;6.996;2023-09-19T09:17:33;18.45;;;3.72;;
39344;SDS011;25061;51.954;6.996;2023-09-19T09:19:59;17.02;;;3.45;;
39344;SDS011;25061;51.954;6.996;2023-09-19T09:22:25;14.68;;;3.33;;
39344;SDS011;25061;51.954;6.996;2023-09-19T09:24:54;17.55;;;3.05;;
39344;SDS011;25061;51.954;6.996;2023-09-19T09:27:28;16.58;;;3.30;;
39344;SDS011;25061;51.954;6.996;2023-09-19T09:29:55;16.02;;;2.97;;
39344;SDS011;25061;51.954;6.996;2023-09-19T09:32:24;16.17;;;3.42;;
39344;SDS011;25061;51.954;6.996;2023-09-19T09:34:52;14.00;;;3.20;;
39344;SDS011;25061;51.954;6.996;2023-09-19T09:37:19;14.27;;;2.88;;
39344;SDS011;25061;51.954;6.996;2023-09-19T09:39:52;18.40;;;3.20;;
39344;SDS011;25061;51.954;6.996;2023-09-19T09:42:29;16.23;;;2.45;;
39344;SDS011;25061;51.954;6.996;2023-09-19T09:45:13;15.07;;;2.60;;
39344;SDS011;25061;51.954;6.996;2023-09-19T09:47:59;16.42;;;2.70;;
39344;SDS011;25061;51.954;6.996;2023-09-19T09:50:31;15.40;;;2.90;;
39344;SDS011;25061;51.954;6.996;2023-09-19T09:53:05;19.88;;;4.00;;
39344;SDS011;25061;51.954;6.996;2023-09-19T09:58:27;21.63;;;3.78;;
39344;SDS011;25061;51.954;6.996;2023-09-19T10:01:03;17.50;;;3.53;;
39344;SDS011;25061;51.954;6.996;2023-09-19T10:03:39;14.60;;;3.35;;
39344;SDS011;25061;51.954;6.996;2023-09-19T10:06:09;14.32;;;2.90;;
39344;SDS011;25061;51.954;6.996;2023-09-19T10:12:02;13.95;;;3.13;;
39344;SDS011;25061;51.954;6.996;2023-09-19T10:14:32;15.05;;;2.70;;
39344;SDS011;25061;51.954;6.996;2023-09-19T10:17:06;11.35;;;2.45;;
39344;SDS011;25061;51.954;6.996;2023-09-19T10:19:37;17.73;;;3.28;;
39344;SDS011;25061;51.954;6.996;2023-09-19T10:22:29;17.08;;;2.67;;
39344;SDS011;25061;51.954;6.996;2023-09-19T10:24:57;12.63;;;2.83;;
39344;SDS011;25061;51.954;6.996;2023-09-19T10:27:25;18.05;;;2.80;;
39344;SDS011;25061;51.954;6.996;2023-09-19T10:29:54;13.50;;;2.65;;
39344;SDS011;25061;51.954;6.996;2023-09-19T10:32:23;16.27;;;3.25;;
39344;SDS011;25061;51.954;6.996;2023-09-19T10:34:51;14.05;;;2.92;;
39344;SDS011;25061;51.954;6.996;2023-09-19T10:37:20;14.90;;;3.20;;
39344;SDS011;25061;51.954;6.996;2023-09-19T10:39:50;16.75;;;3.42;;
39344;SDS011;25061;51.954;6.996;2023-09-19T10:42:20;14.48;;;3.60;;
39344;SDS011;25061;51.954;6.996;2023-09-19T10:44:48;13.80;;;2.88;;
39344;SDS011;25061;51.954;6.996;2023-09-19T10:47:20;12.35;;;2.75;;
39344;SDS011;25061;51.954;6.996;2023-09-19T10:49:49;13.85;;;2.70;;
39344;SDS011;25061;51.954;6.996;2023-09-19T10:52:15;16.80;;;2.88;;
39344;SDS011;25061;51.954;6.996;2023-09-19T10:54:46;13.73;;;2.90;;
39344;SDS011;25061;51.954;6.996;2023-09-19T10:57:20;13.55;;;2.80;;
39344;SDS011;25061;51.954;6.996;2023-09-19T11:00:05;13.35;;;2.78;;
39344;SDS011;25061;51.954;6.996;2023-09-19T11:05:40;12.40;;;2.60;;
39344;SDS011;25061;51.954;6.996;2023-09-19T11:08:06;13.75;;;2.80;;
39344;SDS011;25061;51.954;6.996;2023-09-19T11:10:49;13.77;;;2.80;;
39344;SDS011;25061;51.954;6.996;2023-09-19T11:19:08;14.20;;;2.90;;
39344;SDS011;25061;51.954;6.996;2023-09-19T11:26:50;13.60;;;3.60;;
39344;SDS011;25061;51.954;6.996;2023-09-19T11:29:26;13.60;;;2.80;;
39344;SDS011;25061;51.954;6.996;2023-09-19T11:31:56;12.02;;;2.53;;
39344;SDS011;25061;51.954;6.996;2023-09-19T11:37:03;14.30;;;3.00;;
39344;SDS011;25061;51.954;6.996;2023-09-19T11:39:37;15.77;;;3.05;;
39344;SDS011;25061;51.954;6.996;2023-09-19T11:42:48;12.18;;;3.00;;
39344;SDS011;25061;51.954;6.996;2023-09-19T11:48:11;9.90;;;2.42;;
39344;SDS011;25061;51.954;6.996;2023-09-19T11:50:41;11.27;;;2.60;;
39344;SDS011;25061;51.954;6.996;2023-09-19T11:53:13;13.18;;;2.55;;
39344;SDS011;25061;51.954;6.996;2023-09-19T11:55:42;10.07;;;2.10;;
39344;SDS011;25061;51.954;6.996;2023-09-19T11:58:14;10.45;;;2.17;;
39344;SDS011;25061;51.954;6.996;2023-09-19T12:00:41;13.27;;;2.63;;
39344;SDS011;25061;51.954;6.996;2023-09-19T12:03:11;12.05;;;2.55;;
39344;SDS011;25061;51.954;6.996;2023-09-19T12:05:39;11.13;;;2.42;;
39344;SDS011;25061;51.954;6.996;2023-09-19T12:08:05;11.32;;;2.15;;
39344;SDS011;25061;51.954;6.996;2023-09-19T12:10:43;11.48;;;2.75;;
39344;SDS011;25061;51.954;6.996;2023-09-19T12:13:17;12.50;;;2.50;;
39344;SDS011;25061;51.954;6.996;2023-09-19T12:15:43;13.20;;;2.95;;
39344;SDS011;25061;51.954;6.996;2023-09-19T12:18:28;10.40;;;2.42;;
39344;SDS011;25061;51.954;6.996;2023-09-19T12:20:56;11.77;;;2.40;;
39344;SDS011;25061;51.954;6.996;2023-09-19T12:23:23;11.73;;;2.00;;
39344;SDS011;25061;51.954;6.996;2023-09-19T12:25:50;9.57;;;2.38;;
39344;SDS011;25061;51.954;6.996;2023-09-19T12:28:18;10.70;;;2.33;;
39344;SDS011;25061;51.954;6.996;2023-09-19T12:30:47;12.18;;;2.30;;
39344;SDS011;25061;51.954;6.996;2023-09-19T12:33:15;11.30;;;2.50;;
39344;SDS011;25061;51.954;6.996;2023-09-19T12:35:44;12.18;;;2.65;;
39344;SDS011;25061;51.954;6.996;2023-09-19T12:38:10;13.38;;;2.42;;
39344;SDS011;25061;51.954;6.996;2023-09-19T12:40:37;15.20;;;2.20;;
39344;SDS011;25061;51.954;6.996;2023-09-19T12:43:07;9.63;;;2.15;;
39344;SDS011;25061;51.954;6.996;2023-09-19T12:45:35;14.00;;;2.58;;
39344;SDS011;25061;51.954;6.996;2023-09-19T12:48:23;11.35;;;1.77;;
39344;SDS011;25061;51.954;6.996;2023-09-19T12:51:08;10.95;;;2.42;;
39344;SDS011;25061;51.954;6.996;2023-09-19T12:56:07;11.27;;;3.03;;
39344;SDS011;25061;51.954;6.996;2023-09-19T12:58:47;9.43;;;1.98;;
39344;SDS011;25061;51.954;6.996;2023-09-19T13:01:28;12.05;;;2.40;;
39344;SDS011;25061;51.954;6.996;2023-09-19T13:06:51;14.63;;;2.50;;
39344;SDS011;25061;51.954;6.996;2023-09-19T13:09:18;12.30;;;2.55;;
39344;SDS011;25061;51.954;6.996;2023-09-19T13:11:45;12.43;;;2.22;;
39344;SDS011;25061;51.954;6.996;2023-09-19T13:14:26;11.27;;;2.40;;
39344;SDS011;25061;51.954;6.996;2023-09-19T13:17:00;13.68;;;2.17;;
39344;SDS011;25061;51.954;6.996;2023-09-19T13:19:42;10.15;;;1.98;;
39344;SDS011;25061;51.954;6.996;2023-09-19T13:25:13;13.27;;;2.75;;
39344;SDS011;25061;51.954;6.996;2023-09-19T13:27:44;16.02;;;2.75;;
39344;SDS011;25061;51.954;6.996;2023-09-19T13:30:16;9.38;;;2.28;;
39344;SDS011;25061;51.954;6.996;2023-09-19T13:32:42;12.38;;;2.55;;
39344;SDS011;25061;51.954;6.996;2023-09-19T13:35:08;10.05;;;2.20;;
39344;SDS011;25061;51.954;6.996;2023-09-19T13:37:35;13.45;;;3.92;;
39344;SDS011;25061;51.954;6.996;2023-09-19T13:40:03;8.82;;;2.35;;
39344;SDS011;25061;51.954;6.996;2023-09-19T13:42:30;10.10;;;2.10;;
39344;SDS011;25061;51.954;6.996;2023-09-19T13:44:56;11.10;;;2.20;;
39344;SDS011;25061;51.954;6.996;2023-09-19T13:47:22;10.18;;;2.15;;
39344;SDS011;25061;51.954;6.996;2023-09-19T13:49:50;8.93;;;1.95;;
39344;SDS011;25061;51.954;6.996;2023-09-19T13:52:21;11.45;;;1.85;;
39344;SDS011;25061;51.954;6.996;2023-09-19T13:54:48;11.30;;;2.53;;
39344;SDS011;25061;51.954;6.996;2023-09-19T13:57:17;9.07;;;1.80;;
39344;SDS011;25061;51.954;6.996;2023-09-19T13:59:43;9.25;;;1.83;;
39344;SDS011;25061;51.954;6.996;2023-09-19T14:02:09;9.02;;;1.90;;
39344;SDS011;25061;51.954;6.996;2023-09-19T14:04:34;10.18;;;2.05;;
39344;SDS011;25061;51.954;6.996;2023-09-19T14:07:00;11.07;;;1.67;;
39344;SDS011;25061;51.954;6.996;2023-09-19T14:09:27;10.57;;;1.73;;
39344;SDS011;25061;51.954;6.996;2023-09-19T14:11:55;7.35;;;1.40;;
39344;SDS011;25061;51.954;6.996;2023-09-19T14:14:22;7.40;;;1.63;;
39344;SDS011;25061;51.954;6.996;2023-09-19T14:16:47;9.50;;;1.70;;
39344;SDS011;25061;51.954;6.996;2023-09-19T14:19:13;9.10;;;1.80;;
39344;SDS011;25061;51.954;6.996;2023-09-19T14:21:41;9.25;;;2.08;;
39344;SDS011;25061;51.954;6.996;2023-09-19T14:24:07;6.72;;;1.45;;
39344;SDS011;25061;51.954;6.996;2023-09-19T14:26:40;8.00;;;1.45;;
39344;SDS011;25061;51.954;6.996;2023-09-19T14:29:05;12.00;;;1.83;;
39344;SDS011;25061;51.954;6.996;2023-09-19T14:31:36;7.65;;;1.60;;
39344;SDS011;25061;51.954;6.996;2023-09-19T14:34:05;7.32;;;1.63;;
39344;SDS011;25061;51.954;6.996;2023-09-19T14:36:31;13.65;;;1.63;;
39344;SDS011;25061;51.954;6.996;2023-09-19T14:38:58;12.40;;;2.65;;
39344;SDS011;25061;51.954;6.996;2023-09-19T14:41:24;9.02;;;1.45;;
39344;SDS011;25061;51.954;6.996;2023-09-19T14:43:51;7.55;;;1.48;;
39344;SDS011;25061;51.954;6.996;2023-09-19T14:46:17;5.45;;;1.20;;
39344;SDS011;25061;51.954;6.996;2023-09-19T14:48:44;9.05;;;1.90;;
39344;SDS011;25061;51.954;6.996;2023-09-19T14:51:13;5.45;;;1.20;;
39344;SDS011;25061;51.954;6.996;2023-09-19T14:53:42;8.73;;;1.50;;
39344;SDS011;25061;51.954;6.996;2023-09-19T14:56:08;7.38;;;1.50;;
39344;SDS011;25061;51.954;6.996;2023-09-19T14:58:34;6.25;;;1.52;;
39344;SDS011;25061;51.954;6.996;2023-09-19T15:01:13;5.72;;;1.20;;
39344;SDS011;25061;51.954;6.996;2023-09-19T15:03:39;8.27;;;1.60;;
39344;SDS011;25061;51.954;6.996;2023-09-19T15:06:07;7.13;;;1.20;;
39344;SDS011;25061;51.954;6.996;2023-09-19T15:08:39;6.63;;;1.30;;
39344;SDS011;25061;51.954;6.996;2023-09-19T15:11:09;5.80;;;1.30;;
39344;SDS011;25061;51.954;6.996;2023-09-19T15:13:36;6.53;;;1.20;;
39344;SDS011;25061;51.954;6.996;2023-09-19T15:16:02;5.53;;;1.13;;
39344;SDS011;25061;51.954;6.996;2023-09-19T15:18:29;6.15;;;1.55;;
39344;SDS011;25061;51.954;6.996;2023-09-19T15:21:05;9.77;;;1.38;;
39344;SDS011;25061;51.954;6.996;2023-09-19T15:23:31;6.32;;;1.33;;
39344;SDS011;25061;51.954;6.996;2023-09-19T15:26:00;8.95;;;1.48;;
39344;SDS011;25061;51.954;6.996;2023-09-19T15:28:27;5.72;;;1.00;;
39344;SDS011;25061;51.954;6.996;2023-09-19T15:31:04;5.88;;;1.27;;
39344;SDS011;25061;51.954;6.996;2023-09-19T15:33:32;8.02;;;1.40;;
39344;SDS011;25061;51.954;6.996;2023-09-19T15:41:22;5.28;;;1.10;;
39344;SDS011;25061;51.954;6.996;2023-09-19T15:43:49;4.75;;;1.30;;
39344;SDS011;25061;51.954;6.996;2023-09-19T15:46:14;9.23;;;1.80;;
39344;SDS011;25061;51.954;6.996;2023-09-19T15:48:41;3.95;;;1.05;;
39344;SDS011;25061;51.954;6.996;2023-09-19T15:51:07;7.72;;;1.55;;
39344;SDS011;25061;51.954;6.996;2023-09-19T15:53:51;9.40;;;1.20;;
39344;SDS011;25061;51.954;6.996;2023-09-19T15:56:18;6.45;;;1.20;;
39344;SDS011;25061;51.954;6.996;2023-09-19T15:58:46;10.93;;;1.38;;
39344;SDS011;25061;51.954;6.996;2023-09-19T16:01:13;6.15;;;1.05;;
39344;SDS011;25061;51.954;6.996;2023-09-19T16:03:40;7.75;;;1.45;;
39344;SDS011;25061;51.954;6.996;2023-09-19T16:06:09;10.43;;;1.20;;
39344;SDS011;25061;51.954;6.996;2023-09-19T16:08:39;8.07;;;1.40;;
39344;SDS011;25061;51.954;6.996;2023-09-19T16:13:35;6.28;;;1.17;;
39344;SDS011;25061;51.954;6.996;2023-09-19T16:16:01;8.00;;;1.50;;
39344;SDS011;25061;51.954;6.996;2023-09-19T16:18:28;6.05;;;1.45;;
39344;SDS011;25061;51.954;6.996;2023-09-19T16:21:03;7.53;;;1.77;;
39344;SDS011;25061;51.954;6.996;2023-09-19T16:23:30;6.20;;;1.45;;
39344;SDS011;25061;51.954;6.996;2023-09-19T16:26:01;6.18;;;1.30;;
39344;SDS011;25061;51.954;6.996;2023-09-19T16:28:31;6.95;;;1.42;;
39344;SDS011;25061;51.954;6.996;2023-09-19T16:31:00;6.25;;;1.10;;
39344;SDS011;25061;51.954;6.996;2023-09-19T16:33:27;10.77;;;1.55;;
39344;SDS011;25061;51.954;6.996;2023-09-19T16:35:56;5.85;;;1.13;;
39344;SDS011;25061;51.954;6.996;2023-09-19T16:38:24;8.43;;;1.60;;
39344;SDS011;25061;51.954;6.996;2023-09-19T16:40:57;6.00;;;1.30;;
39344;SDS011;25061;51.954;6.996;2023-09-19T16:43:24;6.57;;;1.73;;
39344;SDS011;25061;51.954;6.996;2023-09-19T16:45:57;5.70;;;1.10;;
39344;SDS011;25061;51.954;6.996;2023-09-19T16:48:33;8.68;;;2.38;;
39344;SDS011;25061;51.954;6.996;2023-09-19T16:51:00;7.13;;;1.30;;
39344;SDS011;25061;51.954;6.996;2023-09-19T16:53:28;7.75;;;1.08;;
39344;SDS011;25061;51.954;6.996;2023-09-19T16:55:54;6.97;;;1.52;;
39344;SDS011;25061;51.954;6.996;2023-09-19T16:58:25;6.72;;;1.52;;
39344;SDS011;25061;51.954;6.996;2023-09-19T17:00:52;6.75;;;1.48;;
39344;SDS011;25061;51.954;6.996;2023-09-19T17:03:18;6.55;;;1.30;;
39344;SDS011;25061;51.954;6.996;2023-09-19T17:05:44;10.57;;;1.55;;
39344;SDS011;25061;51.954;6.996;2023-09-19T17:08:12;8.18;;;1.30;;
39344;SDS011;25061;51.954;6.996;2023-09-19T17:10:38;7.32;;;1.30;;
39344;SDS011;25061;51.954;6.996;2023-09-19T17:13:08;8.32;;;1.58;;
39344;SDS011;25061;51.954;6.996;2023-09-19T17:15:36;6.90;;;1.33;;
39344;SDS011;25061;51.954;6.996;2023-09-19T17:18:02;7.82;;;1.70;;
39344;SDS011;25061;51.954;6.996;2023-09-19T17:20:28;6.43;;;1.55;;
39344;SDS011;25061;51.954;6.996;2023-09-19T17:22:55;8.65;;;1.40;;
39344;SDS011;25061;51.954;6.996;2023-09-19T17:25:21;7.75;;;1.17;;
39344;SDS011;25061;51.954;6.996;2023-09-19T17:27:48;7.45;;;1.60;;
39344;SDS011;25061;51.954;6.996;2023-09-19T17:30:14;8.90;;;1.40;;
39344;SDS011;25061;51.954;6.996;2023-09-19T17:32:40;6.22;;;1.27;;
39344;SDS011;25061;51.954;6.996;2023-09-19T17:35:06;6.70;;;1.25;;
39344;SDS011;25061;51.954;6.996;2023-09-19T17:37:33;5.85;;;1.45;;
39344;SDS011;25061;51.954;6.996;2023-09-19T17:40:01;6.13;;;1.52;;
39344;SDS011;25061;51.954;6.996;2023-09-19T17:42:30;6.85;;;1.35;;
39344;SDS011;25061;51.954;6.996;2023-09-19T17:44:56;9.68;;;1.58;;
39344;SDS011;25061;51.954;6.996;2023-09-19T17:47:22;7.55;;;1.60;;
39344;SDS011;25061;51.954;6.996;2023-09-19T17:49:48;6.05;;;1.60;;
39344;SDS011;25061;51.954;6.996;2023-09-19T17:52:16;8.43;;;1.45;;
39344;SDS011;25061;51.954;6.996;2023-09-19T17:54:44;8.00;;;1.40;;
39344;SDS011;25061;51.954;6.996;2023-09-19T17:57:10;10.63;;;1.63;;
39344;SDS011;25061;51.954;6.996;2023-09-19T17:59:36;10.00;;;1.50;;
39344;SDS011;25061;51.954;6.996;2023-09-19T18:02:02;6.70;;;1.30;;
39344;SDS011;25061;51.954;6.996;2023-09-19T18:04:28;8.50;;;2.03;;
39344;SDS011;25061;51.954;6.996;2023-09-19T18:06:55;5.80;;;1.27;;
39344;SDS011;25061;51.954;6.996;2023-09-19T18:09:20;6.40;;;1.38;;
39344;SDS011;25061;51.954;6.996;2023-09-19T18:11:46;9.35;;;1.40;;
39344;SDS011;25061;51.954;6.996;2023-09-19T18:14:13;4.95;;;1.50;;
39344;SDS011;25061;51.954;6.996;2023-09-19T18:16:42;11.05;;;2.15;;
39344;SDS011;25061;51.954;6.996;2023-09-19T18:19:08;5.63;;;1.38;;
39344;SDS011;25061;51.954;6.996;2023-09-19T18:21:34;6.07;;;1.20;;
39344;SDS011;25061;51.954;6.996;2023-09-19T18:24:00;8.15;;;1.40;;
39344;SDS011;25061;51.954;6.996;2023-09-19T18:26:28;9.60;;;1.77;;
39344;SDS011;25061;51.954;6.996;2023-09-19T18:28:54;8.05;;;1.70;;
39344;SDS011;25061;51.954;6.996;2023-09-19T18:31:20;8.43;;;1.55;;
39344;SDS011;25061;51.954;6.996;2023-09-19T18:33:46;7.38;;;1.48;;
39344;SDS011;25061;51.954;6.996;2023-09-19T18:36:16;6.57;;;1.85;;
39344;SDS011;25061;51.954;6.996;2023-09-19T18:38:43;9.27;;;1.80;;
39344;SDS011;25061;51.954;6.996;2023-09-19T18:41:10;6.53;;;1.40;;
39344;SDS011;25061;51.954;6.996;2023-09-19T18:43:37;7.07;;;1.50;;
39344;SDS011;25061;51.954;6.996;2023-09-19T18:46:04;11.98;;;2.30;;
39344;SDS011;25061;51.954;6.996;2023-09-19T18:48:39;7.72;;;1.80;;
39344;SDS011;25061;51.954;6.996;2023-09-19T18:51:09;8.65;;;2.05;;
39344;SDS011;25061;51.954;6.996;2023-09-19T18:53:37;6.85;;;1.20;;
39344;SDS011;25061;51.954;6.996;2023-09-19T18:56:04;9.20;;;1.95;;
39344;SDS011;25061;51.954;6.996;2023-09-19T18:58:30;6.55;;;1.73;;
39344;SDS011;25061;51.954;6.996;2023-09-19T19:01:04;8.32;;;2.13;;
39344;SDS011;25061;51.954;6.996;2023-09-19T19:03:31;7.05;;;1.70;;
39344;SDS011;25061;51.954;6.996;2023-09-19T19:06:02;8.15;;;1.50;;
39344;SDS011;25061;51.954;6.996;2023-09-19T19:08:29;4.68;;;1.50;;
39344;SDS011;25061;51.954;6.996;2023-09-19T19:10:56;9.27;;;1.75;;
39344;SDS011;25061;51.954;6.996;2023-09-19T19:13:22;7.30;;;1.70;;
39344;SDS011;25061;51.954;6.996;2023-09-19T19:15:48;7.47;;;1.50;;
39344;SDS011;25061;51.954;6.996;2023-09-19T19:18:13;9.00;;;1.67;;
39344;SDS011;25061;51.954;6.996;2023-09-19T19:20:39;8.80;;;1.60;;
39344;SDS011;25061;51.954;6.996;2023-09-19T19:23:06;8.25;;;1.60;;
39344;SDS011;25061;51.954;6.996;2023-09-19T19:25:33;9.63;;;1.73;;
39344;SDS011;25061;51.954;6.996;2023-09-19T19:27:59;6.55;;;1.70;;
39344;SDS011;25061;51.954;6.996;2023-09-19T19:30:26;6.68;;;1.60;;
39344;SDS011;25061;51.954;6.996;2023-09-19T19:32:51;8.75;;;1.70;;
39344;SDS011;25061;51.954;6.996;2023-09-19T19:35:17;8.57;;;1.60;;
39344;SDS011;25061;51.954;6.996;2023-09-19T19:37:43;8.63;;;1.85;;
39344;SDS011;25061;51.954;6.996;2023-09-19T19:40:09;8.20;;;1.85;;
39344;SDS011;25061;51.954;6.996;2023-09-19T19:42:36;8.63;;;1.60;;
39344;SDS011;25061;51.954;6.996;2023-09-19T19:45:01;10.52;;;1.80;;
39344;SDS011;25061;51.954;6.996;2023-09-19T19:47:27;8.13;;;1.73;;
39344;SDS011;25061;51.954;6.996;2023-09-19T19:49:55;11.02;;;2.10;;
39344;SDS011;25061;51.954;6.996;2023-09-19T19:52:23;7.93;;;1.90;;
39344;SDS011;25061;51.954;6.996;2023-09-19T19:54:50;8.88;;;1.75;;
39344;SDS011;25061;51.954;6.996;2023-09-19T19:57:15;5.72;;;1.63;;
39344;SDS011;25061;51.954;6.996;2023-09-19T19:59:42;9.13;;;1.90;;
39344;SDS011;25061;51.954;6.996;2023-09-19T20:02:08;7.25;;;1.70;;